Matupa, Brazil
Current Conditions -  °F | °C
As of 11:10 AM on Wednesday 22 Oct 2014 (Local Time) from SBAT Reporting Station
Moderate Rain Moderate Rain  
Wind Chill: 75°   Ceiling: 800
Heat Index: 75°   Visibility: 6mi
Dew Point: 73°   Wind: 6mph
Humidity: 94%   Direction: 130°SE
Pressure: 29.97"   Gusts: NA
Location:  10.06°S, 54.93°W
Report Text: SBAT 221410Z 13005KT 9999 0800W RA BKN008 SCT020 FEW030TCU 24/23 Q1015
Loading
Personal Weather Stations






























Interactive Weather Map
Tropical Storm Tracking
New forecast layout! Learn more

10-Day Weather Forecast

Advertisements
Track Severe Weather on mobile